sensor_id;sensor_type;location;lat;lon;timestamp;P1;durP1;ratioP1;P2;durP2;ratioP2
4674;SDS011;2351;50.812;12.872;2022-07-30T00:00:27;10.07;;;4.93;;
4674;SDS011;2351;50.812;12.872;2022-07-30T00:02:59;5.13;;;4.30;;
4674;SDS011;2351;50.812;12.872;2022-07-30T00:05:30;7.47;;;5.23;;
4674;SDS011;2351;50.812;12.872;2022-07-30T00:08:02;6.77;;;4.67;;
4674;SDS011;2351;50.812;12.872;2022-07-30T00:10:34;10.13;;;5.20;;
4674;SDS011;2351;50.812;12.872;2022-07-30T00:13:06;6.30;;;5.30;;
4674;SDS011;2351;50.812;12.872;2022-07-30T00:15:39;5.30;;;4.30;;
4674;SDS011;2351;50.812;12.872;2022-07-30T00:18:11;6.60;;;5.53;;
4674;SDS011;2351;50.812;12.872;2022-07-30T00:20:42;6.73;;;4.70;;
4674;SDS011;2351;50.812;12.872;2022-07-30T00:23:14;9.10;;;5.40;;
4674;SDS011;2351;50.812;12.872;2022-07-30T00:25:45;6.47;;;5.30;;
4674;SDS011;2351;50.812;12.872;2022-07-30T00:28:17;5.60;;;4.53;;
4674;SDS011;2351;50.812;12.872;2022-07-30T00:30:50;8.30;;;5.50;;
4674;SDS011;2351;50.812;12.872;2022-07-30T00:33:21;6.67;;;4.97;;
4674;SDS011;2351;50.812;12.872;2022-07-30T00:35:53;6.40;;;4.70;;
4674;SDS011;2351;50.812;12.872;2022-07-30T00:38:24;7.20;;;4.73;;
4674;SDS011;2351;50.812;12.872;2022-07-30T00:40:56;9.50;;;5.67;;
4674;SDS011;2351;50.812;12.872;2022-07-30T00:43:28;12.80;;;5.77;;
4674;SDS011;2351;50.812;12.872;2022-07-30T00:46:01;6.80;;;5.07;;
4674;SDS011;2351;50.812;12.872;2022-07-30T00:48:32;14.67;;;5.13;;
4674;SDS011;2351;50.812;12.872;2022-07-30T00:51:04;15.07;;;5.73;;
4674;SDS011;2351;50.812;12.872;2022-07-30T00:53:35;19.17;;;6.67;;
4674;SDS011;2351;50.812;12.872;2022-07-30T00:56:07;7.90;;;5.53;;
4674;SDS011;2351;50.812;12.872;2022-07-30T00:58:39;7.40;;;5.63;;
4674;SDS011;2351;50.812;12.872;2022-07-30T01:01:12;7.73;;;4.90;;
4674;SDS011;2351;50.812;12.872;2022-07-30T01:03:43;9.70;;;6.13;;
4674;SDS011;2351;50.812;12.872;2022-07-30T01:06:15;6.33;;;4.80;;
4674;SDS011;2351;50.812;12.872;2022-07-30T01:08:46;6.50;;;4.90;;
4674;SDS011;2351;50.812;12.872;2022-07-30T01:11:18;6.90;;;4.50;;
4674;SDS011;2351;50.812;12.872;2022-07-30T01:13:50;5.67;;;4.60;;
4674;SDS011;2351;50.812;12.872;2022-07-30T01:16:23;6.83;;;4.73;;
4674;SDS011;2351;50.812;12.872;2022-07-30T01:18:54;6.70;;;4.33;;
4674;SDS011;2351;50.812;12.872;2022-07-30T01:21:47;6.00;;;4.47;;
4674;SDS011;2351;50.812;12.872;2022-07-30T01:24:26;5.70;;;4.90;;
4674;SDS011;2351;50.812;12.872;2022-07-30T01:27:02;7.30;;;4.80;;
4674;SDS011;2351;50.812;12.872;2022-07-30T01:29:36;21.40;;;4.90;;
4674;SDS011;2351;50.812;12.872;2022-07-30T01:32:11;5.77;;;4.90;;
4674;SDS011;2351;50.812;12.872;2022-07-30T01:34:44;10.03;;;5.17;;
4674;SDS011;2351;50.812;12.872;2022-07-30T01:37:16;5.47;;;4.17;;
4674;SDS011;2351;50.812;12.872;2022-07-30T01:39:51;7.57;;;5.23;;
4674;SDS011;2351;50.812;12.872;2022-07-30T01:42:25;8.27;;;5.43;;
4674;SDS011;2351;50.812;12.872;2022-07-30T01:44:59;5.60;;;4.70;;
4674;SDS011;2351;50.812;12.872;2022-07-30T01:47:33;12.40;;;5.07;;
4674;SDS011;2351;50.812;12.872;2022-07-30T01:50:06;10.93;;;5.90;;
4674;SDS011;2351;50.812;12.872;2022-07-30T01:52:43;7.07;;;5.40;;
4674;SDS011;2351;50.812;12.872;2022-07-30T01:55:19;5.73;;;4.60;;
4674;SDS011;2351;50.812;12.872;2022-07-30T01:57:56;7.80;;;5.30;;
4674;SDS011;2351;50.812;12.872;2022-07-30T02:00:30;7.33;;;4.93;;
4674;SDS011;2351;50.812;12.872;2022-07-30T02:03:04;8.27;;;5.20;;
4674;SDS011;2351;50.812;12.872;2022-07-30T02:05:37;26.77;;;5.97;;
4674;SDS011;2351;50.812;12.872;2022-07-30T02:08:14;11.10;;;5.27;;
4674;SDS011;2351;50.812;12.872;2022-07-30T02:10:50;10.03;;;4.97;;
4674;SDS011;2351;50.812;12.872;2022-07-30T02:13:27;6.57;;;5.17;;
4674;SDS011;2351;50.812;12.872;2022-07-30T02:16:04;7.30;;;5.20;;
4674;SDS011;2351;50.812;12.872;2022-07-30T02:18:42;6.67;;;5.17;;
4674;SDS011;2351;50.812;12.872;2022-07-30T02:21:21;8.73;;;5.90;;
4674;SDS011;2351;50.812;12.872;2022-07-30T02:23:54;7.97;;;5.50;;
4674;SDS011;2351;50.812;12.872;2022-07-30T02:26:28;6.97;;;6.20;;
4674;SDS011;2351;50.812;12.872;2022-07-30T02:29:02;9.73;;;6.50;;
4674;SDS011;2351;50.812;12.872;2022-07-30T02:31:35;9.63;;;6.27;;
4674;SDS011;2351;50.812;12.872;2022-07-30T02:34:08;8.47;;;6.10;;
4674;SDS011;2351;50.812;12.872;2022-07-30T02:36:43;7.80;;;5.43;;
4674;SDS011;2351;50.812;12.872;2022-07-30T02:39:16;10.27;;;5.63;;
4674;SDS011;2351;50.812;12.872;2022-07-30T02:41:49;9.30;;;5.63;;
4674;SDS011;2351;50.812;12.872;2022-07-30T02:44:26;9.17;;;5.60;;
4674;SDS011;2351;50.812;12.872;2022-07-30T02:47:00;5.50;;;4.97;;
4674;SDS011;2351;50.812;12.872;2022-07-30T02:49:33;8.30;;;5.70;;
4674;SDS011;2351;50.812;12.872;2022-07-30T02:52:06;8.70;;;6.37;;
4674;SDS011;2351;50.812;12.872;2022-07-30T02:54:41;9.20;;;6.60;;
4674;SDS011;2351;50.812;12.872;2022-07-30T02:57:14;7.13;;;5.80;;
4674;SDS011;2351;50.812;12.872;2022-07-30T02:59:51;8.93;;;5.47;;
4674;SDS011;2351;50.812;12.872;2022-07-30T03:02:25;8.83;;;6.17;;
4674;SDS011;2351;50.812;12.872;2022-07-30T03:04:58;7.30;;;5.60;;
4674;SDS011;2351;50.812;12.872;2022-07-30T03:07:31;8.20;;;6.30;;
4674;SDS011;2351;50.812;12.872;2022-07-30T03:10:04;13.67;;;5.97;;
4674;SDS011;2351;50.812;12.872;2022-07-30T03:12:37;7.93;;;6.30;;
4674;SDS011;2351;50.812;12.872;2022-07-30T03:15:13;6.83;;;5.70;;
4674;SDS011;2351;50.812;12.872;2022-07-30T03:17:45;7.83;;;6.03;;
4674;SDS011;2351;50.812;12.872;2022-07-30T03:20:24;9.47;;;6.60;;
4674;SDS011;2351;50.812;12.872;2022-07-30T03:22:58;12.20;;;6.90;;
4674;SDS011;2351;50.812;12.872;2022-07-30T03:25:31;7.97;;;6.10;;
4674;SDS011;2351;50.812;12.872;2022-07-30T03:28:04;10.17;;;6.30;;
4674;SDS011;2351;50.812;12.872;2022-07-30T03:30:38;12.43;;;6.97;;
4674;SDS011;2351;50.812;12.872;2022-07-30T03:33:13;9.70;;;7.23;;
4674;SDS011;2351;50.812;12.872;2022-07-30T03:35:45;10.23;;;7.03;;
4674;SDS011;2351;50.812;12.872;2022-07-30T03:38:19;16.00;;;7.33;;
4674;SDS011;2351;50.812;12.872;2022-07-30T03:40:51;10.90;;;7.67;;
4674;SDS011;2351;50.812;12.872;2022-07-30T03:43:24;9.43;;;6.70;;
4674;SDS011;2351;50.812;12.872;2022-07-30T03:45:57;14.50;;;7.77;;
4674;SDS011;2351;50.812;12.872;2022-07-30T03:48:30;10.57;;;7.80;;
4674;SDS011;2351;50.812;12.872;2022-07-30T03:51:05;10.87;;;7.87;;
4674;SDS011;2351;50.812;12.872;2022-07-30T03:53:39;10.13;;;7.57;;
4674;SDS011;2351;50.812;12.872;2022-07-30T03:56:12;10.47;;;8.17;;
4674;SDS011;2351;50.812;12.872;2022-07-30T03:58:44;12.37;;;8.33;;
4674;SDS011;2351;50.812;12.872;2022-07-30T04:01:17;13.07;;;8.67;;
4674;SDS011;2351;50.812;12.872;2022-07-30T04:03:49;11.10;;;8.47;;
4674;SDS011;2351;50.812;12.872;2022-07-30T04:06:20;10.70;;;8.10;;
4674;SDS011;2351;50.812;12.872;2022-07-30T04:08:52;10.77;;;8.20;;
4674;SDS011;2351;50.812;12.872;2022-07-30T04:11:24;16.40;;;9.07;;
4674;SDS011;2351;50.812;12.872;2022-07-30T04:13:55;14.50;;;8.60;;
4674;SDS011;2351;50.812;12.872;2022-07-30T04:16:30;11.23;;;7.77;;
4674;SDS011;2351;50.812;12.872;2022-07-30T04:19:07;12.80;;;8.87;;
4674;SDS011;2351;50.812;12.872;2022-07-30T04:21:45;14.40;;;9.03;;
4674;SDS011;2351;50.812;12.872;2022-07-30T04:24:19;14.97;;;9.50;;
4674;SDS011;2351;50.812;12.872;2022-07-30T04:26:52;12.27;;;9.03;;
4674;SDS011;2351;50.812;12.872;2022-07-30T04:29:23;11.70;;;8.57;;
4674;SDS011;2351;50.812;12.872;2022-07-30T04:31:56;14.10;;;9.50;;
4674;SDS011;2351;50.812;12.872;2022-07-30T04:34:28;13.40;;;9.00;;
4674;SDS011;2351;50.812;12.872;2022-07-30T04:37:00;13.47;;;9.70;;
4674;SDS011;2351;50.812;12.872;2022-07-30T04:39:31;12.40;;;8.80;;
4674;SDS011;2351;50.812;12.872;2022-07-30T04:42:03;14.77;;;9.73;;
4674;SDS011;2351;50.812;12.872;2022-07-30T04:44:35;14.87;;;10.07;;
4674;SDS011;2351;50.812;12.872;2022-07-30T04:47:08;12.80;;;9.43;;
4674;SDS011;2351;50.812;12.872;2022-07-30T04:49:39;12.30;;;9.07;;
4674;SDS011;2351;50.812;12.872;2022-07-30T04:52:13;14.50;;;10.30;;
4674;SDS011;2351;50.812;12.872;2022-07-30T04:54:48;14.13;;;9.97;;
4674;SDS011;2351;50.812;12.872;2022-07-30T04:57:23;17.20;;;9.90;;
4674;SDS011;2351;50.812;12.872;2022-07-30T04:59:55;15.13;;;10.17;;
4674;SDS011;2351;50.812;12.872;2022-07-30T05:02:28;17.40;;;11.50;;
4674;SDS011;2351;50.812;12.872;2022-07-30T05:05:02;16.30;;;10.60;;
4674;SDS011;2351;50.812;12.872;2022-07-30T05:07:35;15.23;;;11.17;;
4674;SDS011;2351;50.812;12.872;2022-07-30T05:10:08;14.80;;;11.03;;
4674;SDS011;2351;50.812;12.872;2022-07-30T05:12:41;13.57;;;9.70;;
4674;SDS011;2351;50.812;12.872;2022-07-30T05:15:13;17.40;;;10.83;;
4674;SDS011;2351;50.812;12.872;2022-07-30T05:17:46;15.13;;;10.67;;
4674;SDS011;2351;50.812;12.872;2022-07-30T05:20:18;16.90;;;10.60;;
4674;SDS011;2351;50.812;12.872;2022-07-30T05:22:49;17.70;;;12.40;;
4674;SDS011;2351;50.812;12.872;2022-07-30T05:25:21;16.97;;;11.57;;
4674;SDS011;2351;50.812;12.872;2022-07-30T05:27:52;15.03;;;10.30;;
4674;SDS011;2351;50.812;12.872;2022-07-30T05:30:25;23.60;;;13.43;;
4674;SDS011;2351;50.812;12.872;2022-07-30T05:32:58;24.40;;;12.30;;
4674;SDS011;2351;50.812;12.872;2022-07-30T05:35:30;16.20;;;10.80;;
4674;SDS011;2351;50.812;12.872;2022-07-30T05:38:01;17.43;;;12.17;;
4674;SDS011;2351;50.812;12.872;2022-07-30T05:40:33;16.90;;;11.97;;
4674;SDS011;2351;50.812;12.872;2022-07-30T05:43:05;22.50;;;13.20;;
4674;SDS011;2351;50.812;12.872;2022-07-30T05:45:36;21.50;;;14.00;;
4674;SDS011;2351;50.812;12.872;2022-07-30T05:48:09;15.70;;;11.23;;
4674;SDS011;2351;50.812;12.872;2022-07-30T05:50:41;20.30;;;12.57;;
4674;SDS011;2351;50.812;12.872;2022-07-30T05:53:12;21.60;;;12.87;;
4674;SDS011;2351;50.812;12.872;2022-07-30T05:55:44;22.57;;;12.77;;
4674;SDS011;2351;50.812;12.872;2022-07-30T05:58:16;18.33;;;12.30;;
4674;SDS011;2351;50.812;12.872;2022-07-30T06:00:48;18.10;;;12.00;;
4674;SDS011;2351;50.812;12.872;2022-07-30T06:03:21;16.80;;;12.23;;
4674;SDS011;2351;50.812;12.872;2022-07-30T06:05:53;19.67;;;12.70;;
4674;SDS011;2351;50.812;12.872;2022-07-30T06:08:24;22.57;;;12.87;;
4674;SDS011;2351;50.812;12.872;2022-07-30T06:10:56;24.17;;;14.93;;
4674;SDS011;2351;50.812;12.872;2022-07-30T06:13:27;20.43;;;12.80;;
4674;SDS011;2351;50.812;12.872;2022-07-30T06:15:59;21.17;;;12.73;;
4674;SDS011;2351;50.812;12.872;2022-07-30T06:18:32;18.57;;;13.03;;
4674;SDS011;2351;50.812;12.872;2022-07-30T06:21:03;26.80;;;14.93;;
4674;SDS011;2351;50.812;12.872;2022-07-30T06:23:35;23.30;;;15.00;;
4674;SDS011;2351;50.812;12.872;2022-07-30T06:26:06;22.67;;;14.80;;
4674;SDS011;2351;50.812;12.872;2022-07-30T06:28:38;24.50;;;14.93;;
4674;SDS011;2351;50.812;12.872;2022-07-30T06:31:09;27.93;;;15.10;;
4674;SDS011;2351;50.812;12.872;2022-07-30T06:33:43;22.63;;;14.10;;
4674;SDS011;2351;50.812;12.872;2022-07-30T06:36:15;28.73;;;16.43;;
4674;SDS011;2351;50.812;12.872;2022-07-30T06:38:46;24.37;;;15.60;;
4674;SDS011;2351;50.812;12.872;2022-07-30T06:41:18;24.77;;;14.63;;
4674;SDS011;2351;50.812;12.872;2022-07-30T06:43:49;23.80;;;15.13;;
4674;SDS011;2351;50.812;12.872;2022-07-30T06:46:21;31.03;;;15.30;;
4674;SDS011;2351;50.812;12.872;2022-07-30T06:48:54;26.17;;;14.67;;
4674;SDS011;2351;50.812;12.872;2022-07-30T06:51:26;28.03;;;15.70;;
4674;SDS011;2351;50.812;12.872;2022-07-30T06:53:57;24.30;;;14.57;;
4674;SDS011;2351;50.812;12.872;2022-07-30T06:56:29;29.03;;;15.20;;
4674;SDS011;2351;50.812;12.872;2022-07-30T06:59:01;29.40;;;15.97;;
4674;SDS011;2351;50.812;12.872;2022-07-30T07:01:32;25.20;;;14.67;;
4674;SDS011;2351;50.812;12.872;2022-07-30T07:04:05;27.67;;;16.13;;
4674;SDS011;2351;50.812;12.872;2022-07-30T07:06:37;27.20;;;13.87;;
4674;SDS011;2351;50.812;12.872;2022-07-30T07:09:08;29.37;;;16.53;;
4674;SDS011;2351;50.812;12.872;2022-07-30T07:11:40;26.13;;;15.30;;
4674;SDS011;2351;50.812;12.872;2022-07-30T07:14:11;25.67;;;14.90;;
4674;SDS011;2351;50.812;12.872;2022-07-30T07:16:43;29.30;;;15.90;;
4674;SDS011;2351;50.812;12.872;2022-07-30T07:19:16;27.67;;;15.40;;
4674;SDS011;2351;50.812;12.872;2022-07-30T07:21:48;25.07;;;15.43;;
4674;SDS011;2351;50.812;12.872;2022-07-30T07:24:19;27.90;;;15.63;;
4674;SDS011;2351;50.812;12.872;2022-07-30T07:26:51;28.77;;;14.93;;
4674;SDS011;2351;50.812;12.872;2022-07-30T07:29:22;26.60;;;15.10;;
4674;SDS011;2351;50.812;12.872;2022-07-30T07:31:54;29.43;;;16.10;;
4674;SDS011;2351;50.812;12.872;2022-07-30T07:34:27;27.10;;;15.60;;
4674;SDS011;2351;50.812;12.872;2022-07-30T07:36:59;28.13;;;15.47;;
4674;SDS011;2351;50.812;12.872;2022-07-30T07:39:30;31.03;;;17.00;;
4674;SDS011;2351;50.812;12.872;2022-07-30T07:42:02;32.77;;;15.37;;
4674;SDS011;2351;50.812;12.872;2022-07-30T07:44:34;31.30;;;16.43;;
4674;SDS011;2351;50.812;12.872;2022-07-30T07:47:05;30.10;;;16.03;;
4674;SDS011;2351;50.812;12.872;2022-07-30T07:49:38;28.47;;;15.80;;
4674;SDS011;2351;50.812;12.872;2022-07-30T07:52:10;22.87;;;14.63;;
4674;SDS011;2351;50.812;12.872;2022-07-30T07:54:41;29.93;;;15.03;;
4674;SDS011;2351;50.812;12.872;2022-07-30T07:57:13;24.67;;;14.73;;
4674;SDS011;2351;50.812;12.872;2022-07-30T07:59:44;31.67;;;14.07;;
4674;SDS011;2351;50.812;12.872;2022-07-30T08:02:16;20.60;;;14.53;;
4674;SDS011;2351;50.812;12.872;2022-07-30T08:04:49;23.43;;;14.73;;
4674;SDS011;2351;50.812;12.872;2022-07-30T08:07:21;21.43;;;13.90;;
4674;SDS011;2351;50.812;12.872;2022-07-30T08:09:53;22.23;;;13.47;;
4674;SDS011;2351;50.812;12.872;2022-07-30T08:12:24;29.03;;;13.90;;
4674;SDS011;2351;50.812;12.872;2022-07-30T08:14:56;21.97;;;14.10;;
4674;SDS011;2351;50.812;12.872;2022-07-30T08:17:28;22.70;;;12.87;;
4674;SDS011;2351;50.812;12.872;2022-07-30T08:20:02;19.43;;;11.60;;
4674;SDS011;2351;50.812;12.872;2022-07-30T08:22:34;23.97;;;13.03;;
4674;SDS011;2351;50.812;12.872;2022-07-30T08:25:06;22.50;;;12.30;;
4674;SDS011;2351;50.812;12.872;2022-07-30T08:27:38;20.43;;;12.50;;
4674;SDS011;2351;50.812;12.872;2022-07-30T08:30:10;22.47;;;14.57;;
4674;SDS011;2351;50.812;12.872;2022-07-30T08:32:42;22.83;;;12.80;;
4674;SDS011;2351;50.812;12.872;2022-07-30T08:35:15;21.90;;;12.53;;
4674;SDS011;2351;50.812;12.872;2022-07-30T08:37:47;19.77;;;12.20;;
4674;SDS011;2351;50.812;12.872;2022-07-30T08:40:18;21.67;;;13.87;;
4674;SDS011;2351;50.812;12.872;2022-07-30T08:42:50;22.30;;;13.30;;
4674;SDS011;2351;50.812;12.872;2022-07-30T08:45:22;30.30;;;15.60;;
4674;SDS011;2351;50.812;12.872;2022-07-30T08:47:54;24.90;;;14.90;;
4674;SDS011;2351;50.812;12.872;2022-07-30T08:50:31;24.90;;;14.33;;
4674;SDS011;2351;50.812;12.872;2022-07-30T08:53:02;24.73;;;15.00;;
4674;SDS011;2351;50.812;12.872;2022-07-30T08:55:34;22.17;;;14.73;;
4674;SDS011;2351;50.812;12.872;2022-07-30T08:58:09;19.33;;;12.97;;
4674;SDS011;2351;50.812;12.872;2022-07-30T09:00:53;17.60;;;11.47;;
4674;SDS011;2351;50.812;12.872;2022-07-30T09:03:24;13.63;;;10.53;;
4674;SDS011;2351;50.812;12.872;2022-07-30T09:05:57;15.53;;;10.83;;
4674;SDS011;2351;50.812;12.872;2022-07-30T09:08:31;14.53;;;11.00;;
4674;SDS011;2351;50.812;12.872;2022-07-30T09:11:02;15.47;;;11.30;;
4674;SDS011;2351;50.812;12.872;2022-07-30T09:13:35;19.30;;;11.30;;
4674;SDS011;2351;50.812;12.872;2022-07-30T09:16:17;21.10;;;10.67;;
4674;SDS011;2351;50.812;12.872;2022-07-30T09:18:50;17.33;;;10.83;;
4674;SDS011;2351;50.812;12.872;2022-07-30T09:21:26;19.20;;;11.23;;
4674;SDS011;2351;50.812;12.872;2022-07-30T09:24:00;15.90;;;10.30;;
4674;SDS011;2351;50.812;12.872;2022-07-30T09:26:33;11.90;;;9.40;;
4674;SDS011;2351;50.812;12.872;2022-07-30T09:29:23;12.43;;;9.23;;
4674;SDS011;2351;50.812;12.872;2022-07-30T09:31:59;13.50;;;9.00;;
4674;SDS011;2351;50.812;12.872;2022-07-30T09:34:32;18.43;;;9.20;;
4674;SDS011;2351;50.812;12.872;2022-07-30T09:37:16;16.63;;;10.20;;
4674;SDS011;2351;50.812;12.872;2022-07-30T09:39:48;11.50;;;9.10;;
4674;SDS011;2351;50.812;12.872;2022-07-30T09:42:21;10.77;;;8.40;;
4674;SDS011;2351;50.812;12.872;2022-07-30T09:45:03;12.03;;;8.40;;
4674;SDS011;2351;50.812;12.872;2022-07-30T09:47:36;12.30;;;9.27;;
4674;SDS011;2351;50.812;12.872;2022-07-30T09:50:09;12.80;;;8.43;;
4674;SDS011;2351;50.812;12.872;2022-07-30T09:52:44;10.93;;;8.23;;
4674;SDS011;2351;50.812;12.872;2022-07-30T09:55:27;14.40;;;9.03;;
4674;SDS011;2351;50.812;12.872;2022-07-30T09:58:00;10.80;;;7.77;;
4674;SDS011;2351;50.812;12.872;2022-07-30T10:00:35;13.80;;;8.70;;
4674;SDS011;2351;50.812;12.872;2022-07-30T10:03:14;12.70;;;8.73;;
4674;SDS011;2351;50.812;12.872;2022-07-30T10:05:50;15.67;;;8.73;;
4674;SDS011;2351;50.812;12.872;2022-07-30T10:08:37;10.10;;;8.70;;
4674;SDS011;2351;50.812;12.872;2022-07-30T10:11:11;12.60;;;9.20;;
4674;SDS011;2351;50.812;12.872;2022-07-30T10:13:44;14.10;;;9.40;;
4674;SDS011;2351;50.812;12.872;2022-07-30T10:16:17;12.17;;;7.80;;
4674;SDS011;2351;50.812;12.872;2022-07-30T10:18:49;11.67;;;9.10;;
4674;SDS011;2351;50.812;12.872;2022-07-30T10:21:22;10.03;;;7.97;;
4674;SDS011;2351;50.812;12.872;2022-07-30T10:23:55;13.63;;;8.70;;
4674;SDS011;2351;50.812;12.872;2022-07-30T10:26:27;12.60;;;7.80;;
4674;SDS011;2351;50.812;12.872;2022-07-30T10:29:04;10.93;;;6.80;;
4674;SDS011;2351;50.812;12.872;2022-07-30T10:31:36;8.67;;;7.00;;
4674;SDS011;2351;50.812;12.872;2022-07-30T10:34:07;8.97;;;7.53;;
4674;SDS011;2351;50.812;12.872;2022-07-30T10:36:39;10.57;;;7.13;;
4674;SDS011;2351;50.812;12.872;2022-07-30T10:39:16;9.20;;;6.80;;
4674;SDS011;2351;50.812;12.872;2022-07-30T10:42:00;11.33;;;7.33;;
4674;SDS011;2351;50.812;12.872;2022-07-30T10:44:50;9.97;;;8.03;;
4674;SDS011;2351;50.812;12.872;2022-07-30T10:47:33;10.57;;;7.97;;
4674;SDS011;2351;50.812;12.872;2022-07-30T10:50:08;13.03;;;7.93;;
4674;SDS011;2351;50.812;12.872;2022-07-30T10:52:42;8.73;;;7.30;;
4674;SDS011;2351;50.812;12.872;2022-07-30T10:55:16;12.03;;;8.40;;
4674;SDS011;2351;50.812;12.872;2022-07-30T10:57:59;26.17;;;9.63;;
4674;SDS011;2351;50.812;12.872;2022-07-30T11:00:32;9.07;;;7.30;;
4674;SDS011;2351;50.812;12.872;2022-07-30T11:03:16;15.80;;;7.70;;
4674;SDS011;2351;50.812;12.872;2022-07-30T11:05:50;13.83;;;8.90;;
4674;SDS011;2351;50.812;12.872;2022-07-30T11:08:43;11.73;;;6.47;;
4674;SDS011;2351;50.812;12.872;2022-07-30T11:14:16;10.07;;;7.07;;
4674;SDS011;2351;50.812;12.872;2022-07-30T11:16:57;10.20;;;8.27;;
4674;SDS011;2351;50.812;12.872;2022-07-30T11:19:29;10.90;;;7.57;;
4674;SDS011;2351;50.812;12.872;2022-07-30T11:24:52;8.57;;;7.20;;
4674;SDS011;2351;50.812;12.872;2022-07-30T11:27:36;11.70;;;8.10;;
4674;SDS011;2351;50.812;12.872;2022-07-30T11:33:20;15.20;;;7.63;;
4674;SDS011;2351;50.812;12.872;2022-07-30T11:36:03;9.90;;;8.10;;
4674;SDS011;2351;50.812;12.872;2022-07-30T11:38:52;8.97;;;7.17;;
4674;SDS011;2351;50.812;12.872;2022-07-30T11:41:25;10.77;;;7.30;;
4674;SDS011;2351;50.812;12.872;2022-07-30T11:47:01;9.63;;;7.70;;
4674;SDS011;2351;50.812;12.872;2022-07-30T11:49:33;13.33;;;9.00;;
4674;SDS011;2351;50.812;12.872;2022-07-30T11:52:05;13.40;;;8.40;;
4674;SDS011;2351;50.812;12.872;2022-07-30T11:54:49;11.43;;;7.70;;
4674;SDS011;2351;50.812;12.872;2022-07-30T12:00:14;10.63;;;8.10;;
4674;SDS011;2351;50.812;12.872;2022-07-30T12:02:47;16.70;;;8.10;;
4674;SDS011;2351;50.812;12.872;2022-07-30T12:05:22;13.60;;;8.43;;
4674;SDS011;2351;50.812;12.872;2022-07-30T12:07:55;9.53;;;7.07;;
4674;SDS011;2351;50.812;12.872;2022-07-30T12:10:28;9.43;;;6.43;;
4674;SDS011;2351;50.812;12.872;2022-07-30T12:13:07;9.07;;;6.87;;
4674;SDS011;2351;50.812;12.872;2022-07-30T12:15:42;7.70;;;6.50;;
4674;SDS011;2351;50.812;12.872;2022-07-30T12:18:22;11.13;;;6.13;;
4674;SDS011;2351;50.812;12.872;2022-07-30T12:20:55;8.40;;;6.43;;
4674;SDS011;2351;50.812;12.872;2022-07-30T12:23:28;7.90;;;5.70;;
4674;SDS011;2351;50.812;12.872;2022-07-30T12:26:01;6.70;;;5.47;;
4674;SDS011;2351;50.812;12.872;2022-07-30T12:28:33;7.87;;;5.97;;
4674;SDS011;2351;50.812;12.872;2022-07-30T12:31:07;14.47;;;6.53;;
4674;SDS011;2351;50.812;12.872;2022-07-30T12:33:39;5.90;;;5.00;;
4674;SDS011;2351;50.812;12.872;2022-07-30T12:36:22;7.50;;;6.20;;
4674;SDS011;2351;50.812;12.872;2022-07-30T12:38:55;6.47;;;5.20;;
4674;SDS011;2351;50.812;12.872;2022-07-30T12:41:40;7.27;;;6.23;;
4674;SDS011;2351;50.812;12.872;2022-07-30T12:44:32;7.10;;;6.37;;
4674;SDS011;2351;50.812;12.872;2022-07-30T12:47:17;9.80;;;5.70;;
4674;SDS011;2351;50.812;12.872;2022-07-30T12:49:51;7.83;;;5.77;;
4674;SDS011;2351;50.812;12.872;2022-07-30T12:52:24;10.77;;;5.73;;
4674;SDS011;2351;50.812;12.872;2022-07-30T12:55:06;7.80;;;6.30;;
4674;SDS011;2351;50.812;12.872;2022-07-30T12:57:53;7.53;;;6.03;;
4674;SDS011;2351;50.812;12.872;2022-07-30T13:00:26;7.37;;;6.33;;
4674;SDS011;2351;50.812;12.872;2022-07-30T13:03:00;7.73;;;6.47;;
4674;SDS011;2351;50.812;12.872;2022-07-30T13:05:44;7.97;;;6.10;;
4674;SDS011;2351;50.812;12.872;2022-07-30T13:08:17;10.73;;;6.27;;
4674;SDS011;2351;50.812;12.872;2022-07-30T13:10:52;8.03;;;6.77;;
4674;SDS011;2351;50.812;12.872;2022-07-30T13:13:25;7.90;;;7.03;;
4674;SDS011;2351;50.812;12.872;2022-07-30T13:15:57;9.13;;;6.83;;
4674;SDS011;2351;50.812;12.872;2022-07-30T13:18:32;10.70;;;7.30;;
4674;SDS011;2351;50.812;12.872;2022-07-30T13:21:05;10.17;;;6.30;;
4674;SDS011;2351;50.812;12.872;2022-07-30T13:23:38;10.53;;;6.60;;
4674;SDS011;2351;50.812;12.872;2022-07-30T13:26:10;11.40;;;7.03;;
4674;SDS011;2351;50.812;12.872;2022-07-30T13:28:42;7.50;;;6.57;;
4674;SDS011;2351;50.812;12.872;2022-07-30T13:31:15;9.30;;;6.90;;
4674;SDS011;2351;50.812;12.872;2022-07-30T13:33:48;9.27;;;6.30;;
4674;SDS011;2351;50.812;12.872;2022-07-30T13:36:20;8.87;;;6.80;;
4674;SDS011;2351;50.812;12.872;2022-07-30T13:38:52;9.70;;;7.37;;
4674;SDS011;2351;50.812;12.872;2022-07-30T13:41:23;13.67;;;8.33;;
4674;SDS011;2351;50.812;12.872;2022-07-30T13:43:55;16.13;;;6.83;;
4674;SDS011;2351;50.812;12.872;2022-07-30T13:46:26;10.13;;;6.70;;
4674;SDS011;2351;50.812;12.872;2022-07-30T13:48:59;10.57;;;7.80;;
4674;SDS011;2351;50.812;12.872;2022-07-30T13:51:31;9.30;;;7.30;;
4674;SDS011;2351;50.812;12.872;2022-07-30T13:54:03;9.03;;;6.80;;
4674;SDS011;2351;50.812;12.872;2022-07-30T13:56:36;11.90;;;7.37;;
4674;SDS011;2351;50.812;12.872;2022-07-30T13:59:09;9.00;;;7.20;;
4674;SDS011;2351;50.812;12.872;2022-07-30T14:01:40;12.90;;;7.80;;
4674;SDS011;2351;50.812;12.872;2022-07-30T14:04:13;9.87;;;6.70;;
4674;SDS011;2351;50.812;12.872;2022-07-30T14:06:45;9.30;;;7.97;;
4674;SDS011;2351;50.812;12.872;2022-07-30T14:09:16;8.63;;;7.33;;
4674;SDS011;2351;50.812;12.872;2022-07-30T14:11:48;11.70;;;7.40;;
4674;SDS011;2351;50.812;12.872;2022-07-30T14:14:20;20.60;;;7.60;;
4674;SDS011;2351;50.812;12.872;2022-07-30T14:16:52;9.47;;;6.93;;
4674;SDS011;2351;50.812;12.872;2022-07-30T14:19:25;9.77;;;7.57;;
4674;SDS011;2351;50.812;12.872;2022-07-30T14:21:57;7.20;;;6.20;;
4674;SDS011;2351;50.812;12.872;2022-07-30T14:24:28;10.27;;;6.57;;
4674;SDS011;2351;50.812;12.872;2022-07-30T14:27:00;17.50;;;7.23;;
4674;SDS011;2351;50.812;12.872;2022-07-30T14:29:31;9.10;;;6.80;;
4674;SDS011;2351;50.812;12.872;2022-07-30T14:32:03;9.87;;;6.60;;
4674;SDS011;2351;50.812;12.872;2022-07-30T14:34:37;9.30;;;6.90;;
4674;SDS011;2351;50.812;12.872;2022-07-30T14:37:08;10.30;;;6.70;;
4674;SDS011;2351;50.812;12.872;2022-07-30T14:39:40;5.87;;;5.10;;
4674;SDS011;2351;50.812;12.872;2022-07-30T14:42:11;7.90;;;5.97;;
4674;SDS011;2351;50.812;12.872;2022-07-30T14:44:43;6.43;;;5.67;;
4674;SDS011;2351;50.812;12.872;2022-07-30T14:47:15;19.30;;;5.53;;
4674;SDS011;2351;50.812;12.872;2022-07-30T14:49:48;7.27;;;5.90;;
4674;SDS011;2351;50.812;12.872;2022-07-30T14:52:20;7.57;;;5.70;;
4674;SDS011;2351;50.812;12.872;2022-07-30T14:54:52;6.43;;;5.70;;
4674;SDS011;2351;50.812;12.872;2022-07-30T14:57:23;8.00;;;5.80;;
4674;SDS011;2351;50.812;12.872;2022-07-30T14:59:55;6.77;;;5.10;;
4674;SDS011;2351;50.812;12.872;2022-07-30T15:02:27;9.23;;;5.50;;
4674;SDS011;2351;50.812;12.872;2022-07-30T15:04:59;6.37;;;5.30;;
4674;SDS011;2351;50.812;12.872;2022-07-30T15:07:31;6.20;;;5.40;;
4674;SDS011;2351;50.812;12.872;2022-07-30T15:10:03;5.17;;;4.67;;
4674;SDS011;2351;50.812;12.872;2022-07-30T15:12:36;5.93;;;4.80;;
4674;SDS011;2351;50.812;12.872;2022-07-30T15:15:08;6.23;;;4.93;;
4674;SDS011;2351;50.812;12.872;2022-07-30T15:17:40;7.03;;;4.90;;
4674;SDS011;2351;50.812;12.872;2022-07-30T15:20:13;6.67;;;5.03;;
4674;SDS011;2351;50.812;12.872;2022-07-30T15:22:44;6.60;;;4.47;;
4674;SDS011;2351;50.812;12.872;2022-07-30T15:25:16;5.40;;;4.90;;
4674;SDS011;2351;50.812;12.872;2022-07-30T15:27:47;7.73;;;4.27;;
4674;SDS011;2351;50.812;12.872;2022-07-30T15:30:21;6.33;;;4.97;;
4674;SDS011;2351;50.812;12.872;2022-07-30T15:32:53;7.57;;;4.63;;
4674;SDS011;2351;50.812;12.872;2022-07-30T15:35:26;16.83;;;5.83;;
4674;SDS011;2351;50.812;12.872;2022-07-30T15:37:58;8.60;;;5.60;;
4674;SDS011;2351;50.812;12.872;2022-07-30T15:40:30;7.43;;;5.70;;